sensor_id;sensor_type;location;lat;lon;timestamp;P1;durP1;ratioP1;P2;durP2;ratioP2
57191;SDS011;43052;52.588;13.396;2022-12-31T00:02:25;4.13;;;2.53;;
57191;SDS011;43052;52.588;13.396;2022-12-31T00:04:50;3.05;;;2.10;;
57191;SDS011;43052;52.588;13.396;2022-12-31T00:07:15;5.40;;;2.70;;
57191;SDS011;43052;52.588;13.396;2022-12-31T00:09:40;3.53;;;2.30;;
57191;SDS011;43052;52.588;13.396;2022-12-31T00:12:06;2.85;;;2.30;;
57191;SDS011;43052;52.588;13.396;2022-12-31T00:14:31;5.47;;;2.90;;
57191;SDS011;43052;52.588;13.396;2022-12-31T00:16:56;5.07;;;2.78;;
57191;SDS011;43052;52.588;13.396;2022-12-31T00:19:21;4.47;;;2.40;;
57191;SDS011;43052;52.588;13.396;2022-12-31T00:21:46;3.90;;;2.45;;
57191;SDS011;43052;52.588;13.396;2022-12-31T00:24:12;4.82;;;2.67;;
57191;SDS011;43052;52.588;13.396;2022-12-31T00:26:37;4.05;;;2.47;;
57191;SDS011;43052;52.588;13.396;2022-12-31T00:29:03;4.57;;;2.53;;
57191;SDS011;43052;52.588;13.396;2022-12-31T00:31:29;4.28;;;2.30;;
57191;SDS011;43052;52.588;13.396;2022-12-31T00:34:02;6.22;;;2.53;;
57191;SDS011;43052;52.588;13.396;2022-12-31T00:36:29;4.18;;;2.10;;
57191;SDS011;43052;52.588;13.396;2022-12-31T00:38:56;4.05;;;2.20;;
57191;SDS011;43052;52.588;13.396;2022-12-31T00:41:23;4.28;;;2.20;;
57191;SDS011;43052;52.588;13.396;2022-12-31T00:43:49;4.32;;;2.60;;
57191;SDS011;43052;52.588;13.396;2022-12-31T00:46:14;3.30;;;2.20;;
57191;SDS011;43052;52.588;13.396;2022-12-31T00:48:40;3.45;;;2.28;;
57191;SDS011;43052;52.588;13.396;2022-12-31T00:51:07;5.25;;;2.38;;
57191;SDS011;43052;52.588;13.396;2022-12-31T00:53:33;4.35;;;2.67;;
57191;SDS011;43052;52.588;13.396;2022-12-31T00:56:00;3.60;;;2.20;;
57191;SDS011;43052;52.588;13.396;2022-12-31T00:58:26;3.95;;;2.22;;
57191;SDS011;43052;52.588;13.396;2022-12-31T01:00:52;3.95;;;1.75;;
57191;SDS011;43052;52.588;13.396;2022-12-31T01:03:17;3.88;;;2.38;;
57191;SDS011;43052;52.588;13.396;2022-12-31T01:05:42;3.80;;;2.08;;
57191;SDS011;43052;52.588;13.396;2022-12-31T01:08:07;3.42;;;2.15;;
57191;SDS011;43052;52.588;13.396;2022-12-31T01:10:33;2.83;;;1.85;;
57191;SDS011;43052;52.588;13.396;2022-12-31T01:13:16;5.07;;;2.00;;
57191;SDS011;43052;52.588;13.396;2022-12-31T01:15:42;4.03;;;2.10;;
57191;SDS011;43052;52.588;13.396;2022-12-31T01:18:07;3.05;;;2.03;;
57191;SDS011;43052;52.588;13.396;2022-12-31T01:20:36;3.45;;;2.00;;
57191;SDS011;43052;52.588;13.396;2022-12-31T01:23:03;3.17;;;1.70;;
57191;SDS011;43052;52.588;13.396;2022-12-31T01:25:28;2.78;;;1.75;;
57191;SDS011;43052;52.588;13.396;2022-12-31T01:27:53;3.45;;;1.98;;
57191;SDS011;43052;52.588;13.396;2022-12-31T01:30:19;3.30;;;1.58;;
57191;SDS011;43052;52.588;13.396;2022-12-31T01:32:44;3.17;;;1.55;;
57191;SDS011;43052;52.588;13.396;2022-12-31T01:35:09;2.55;;;1.40;;
57191;SDS011;43052;52.588;13.396;2022-12-31T01:37:34;2.85;;;1.58;;
57191;SDS011;43052;52.588;13.396;2022-12-31T01:40:00;2.08;;;1.33;;
57191;SDS011;43052;52.588;13.396;2022-12-31T01:42:25;1.27;;;1.17;;
57191;SDS011;43052;52.588;13.396;2022-12-31T01:44:52;1.13;;;1.02;;
57191;SDS011;43052;52.588;13.396;2022-12-31T01:47:21;1.63;;;1.20;;
57191;SDS011;43052;52.588;13.396;2022-12-31T01:50:02;1.20;;;1.10;;
57191;SDS011;43052;52.588;13.396;2022-12-31T01:52:33;1.30;;;1.15;;
57191;SDS011;43052;52.588;13.396;2022-12-31T01:55:05;1.50;;;1.20;;
57191;SDS011;43052;52.588;13.396;2022-12-31T02:00:02;2.17;;;1.27;;
57191;SDS011;43052;52.588;13.396;2022-12-31T02:02:28;2.55;;;1.33;;
57191;SDS011;43052;52.588;13.396;2022-12-31T02:04:54;1.25;;;1.02;;
57191;SDS011;43052;52.588;13.396;2022-12-31T02:07:22;2.30;;;1.20;;
57191;SDS011;43052;52.588;13.396;2022-12-31T02:09:47;2.08;;;1.20;;
57191;SDS011;43052;52.588;13.396;2022-12-31T02:12:12;1.35;;;1.25;;
57191;SDS011;43052;52.588;13.396;2022-12-31T02:14:49;1.20;;;0.90;;
57191;SDS011;43052;52.588;13.396;2022-12-31T02:17:27;1.73;;;1.00;;
57191;SDS011;43052;52.588;13.396;2022-12-31T02:20:08;1.75;;;1.00;;
57191;SDS011;43052;52.588;13.396;2022-12-31T02:28:32;1.25;;;0.88;;
57191;SDS011;43052;52.588;13.396;2022-12-31T02:31:08;0.70;;;0.70;;
57191;SDS011;43052;52.588;13.396;2022-12-31T02:34:00;0.95;;;0.80;;
57191;SDS011;43052;52.588;13.396;2022-12-31T02:36:32;1.40;;;0.90;;
57191;SDS011;43052;52.588;13.396;2022-12-31T02:39:03;1.63;;;1.00;;
57191;SDS011;43052;52.588;13.396;2022-12-31T02:41:29;1.08;;;0.98;;
57191;SDS011;43052;52.588;13.396;2022-12-31T02:46:50;1.75;;;0.95;;
57191;SDS011;43052;52.588;13.396;2022-12-31T02:52:27;2.95;;;1.08;;
57191;SDS011;43052;52.588;13.396;2022-12-31T02:55:32;1.00;;;0.90;;
57191;SDS011;43052;52.588;13.396;2022-12-31T03:01:34;1.88;;;1.10;;
57191;SDS011;43052;52.588;13.396;2022-12-31T03:04:21;1.33;;;1.10;;
57191;SDS011;43052;52.588;13.396;2022-12-31T03:07:05;1.23;;;1.10;;
57191;SDS011;43052;52.588;13.396;2022-12-31T03:09:32;1.27;;;0.90;;
57191;SDS011;43052;52.588;13.396;2022-12-31T03:11:58;1.55;;;1.10;;
57191;SDS011;43052;52.588;13.396;2022-12-31T03:14:43;1.15;;;1.05;;
57191;SDS011;43052;52.588;13.396;2022-12-31T03:17:08;1.10;;;0.85;;
57191;SDS011;43052;52.588;13.396;2022-12-31T03:19:33;0.85;;;0.80;;
57191;SDS011;43052;52.588;13.396;2022-12-31T03:22:17;1.40;;;0.90;;
57191;SDS011;43052;52.588;13.396;2022-12-31T03:24:51;1.45;;;0.90;;
57191;SDS011;43052;52.588;13.396;2022-12-31T03:27:35;1.52;;;0.93;;
57191;SDS011;43052;52.588;13.396;2022-12-31T03:30:00;0.90;;;0.90;;
57191;SDS011;43052;52.588;13.396;2022-12-31T03:32:26;1.10;;;0.93;;
57191;SDS011;43052;52.588;13.396;2022-12-31T03:34:51;1.75;;;1.65;;
57191;SDS011;43052;52.588;13.396;2022-12-31T03:37:16;1.23;;;0.70;;
57191;SDS011;43052;52.588;13.396;2022-12-31T03:39:41;0.98;;;0.88;;
57191;SDS011;43052;52.588;13.396;2022-12-31T03:42:07;1.42;;;0.80;;
57191;SDS011;43052;52.588;13.396;2022-12-31T03:44:32;0.90;;;0.80;;
57191;SDS011;43052;52.588;13.396;2022-12-31T03:46:57;0.73;;;0.73;;
57191;SDS011;43052;52.588;13.396;2022-12-31T03:49:22;1.63;;;1.00;;
57191;SDS011;43052;52.588;13.396;2022-12-31T03:51:48;1.15;;;0.90;;
57191;SDS011;43052;52.588;13.396;2022-12-31T03:54:13;1.55;;;1.10;;
57191;SDS011;43052;52.588;13.396;2022-12-31T03:56:38;1.20;;;1.10;;
57191;SDS011;43052;52.588;13.396;2022-12-31T03:59:03;1.27;;;1.15;;
57191;SDS011;43052;52.588;13.396;2022-12-31T04:01:29;1.67;;;1.00;;
57191;SDS011;43052;52.588;13.396;2022-12-31T04:03:54;1.30;;;1.20;;
57191;SDS011;43052;52.588;13.396;2022-12-31T04:06:19;2.28;;;1.52;;
57191;SDS011;43052;52.588;13.396;2022-12-31T04:08:44;1.70;;;1.00;;
57191;SDS011;43052;52.588;13.396;2022-12-31T04:11:09;2.63;;;1.17;;
57191;SDS011;43052;52.588;13.396;2022-12-31T04:13:35;1.17;;;1.10;;
57191;SDS011;43052;52.588;13.396;2022-12-31T04:16:00;0.90;;;0.90;;
57191;SDS011;43052;52.588;13.396;2022-12-31T04:18:25;1.55;;;0.80;;
57191;SDS011;43052;52.588;13.396;2022-12-31T04:20:50;1.13;;;1.02;;
57191;SDS011;43052;52.588;13.396;2022-12-31T04:23:16;1.00;;;0.90;;
57191;SDS011;43052;52.588;13.396;2022-12-31T04:25:41;1.10;;;1.00;;
57191;SDS011;43052;52.588;13.396;2022-12-31T04:28:06;1.17;;;0.88;;
57191;SDS011;43052;52.588;13.396;2022-12-31T04:30:32;2.35;;;1.55;;
57191;SDS011;43052;52.588;13.396;2022-12-31T04:32:57;1.27;;;0.90;;
57191;SDS011;43052;52.588;13.396;2022-12-31T04:35:22;0.80;;;0.80;;
57191;SDS011;43052;52.588;13.396;2022-12-31T04:37:47;0.82;;;0.82;;
57191;SDS011;43052;52.588;13.396;2022-12-31T04:40:13;0.80;;;0.80;;
57191;SDS011;43052;52.588;13.396;2022-12-31T04:42:38;1.05;;;0.95;;
57191;SDS011;43052;52.588;13.396;2022-12-31T04:45:03;1.00;;;0.82;;
57191;SDS011;43052;52.588;13.396;2022-12-31T04:47:29;1.00;;;0.85;;
57191;SDS011;43052;52.588;13.396;2022-12-31T04:49:54;0.80;;;0.80;;
57191;SDS011;43052;52.588;13.396;2022-12-31T04:52:19;0.93;;;0.88;;
57191;SDS011;43052;52.588;13.396;2022-12-31T04:54:46;1.00;;;1.00;;
57191;SDS011;43052;52.588;13.396;2022-12-31T04:57:11;1.00;;;0.90;;
57191;SDS011;43052;52.588;13.396;2022-12-31T04:59:37;0.80;;;0.80;;
57191;SDS011;43052;52.588;13.396;2022-12-31T05:02:02;1.20;;;0.90;;
57191;SDS011;43052;52.588;13.396;2022-12-31T05:04:27;0.75;;;0.75;;
57191;SDS011;43052;52.588;13.396;2022-12-31T05:06:53;0.95;;;0.90;;
57191;SDS011;43052;52.588;13.396;2022-12-31T05:09:18;1.48;;;0.90;;
57191;SDS011;43052;52.588;13.396;2022-12-31T05:11:43;2.35;;;0.90;;
57191;SDS011;43052;52.588;13.396;2022-12-31T05:14:09;1.67;;;1.00;;
57191;SDS011;43052;52.588;13.396;2022-12-31T05:16:34;1.40;;;0.90;;
57191;SDS011;43052;52.588;13.396;2022-12-31T05:19:00;1.38;;;0.90;;
57191;SDS011;43052;52.588;13.396;2022-12-31T05:21:25;0.80;;;0.80;;
57191;SDS011;43052;52.588;13.396;2022-12-31T05:23:50;0.90;;;0.75;;
57191;SDS011;43052;52.588;13.396;2022-12-31T05:26:15;1.42;;;0.82;;
57191;SDS011;43052;52.588;13.396;2022-12-31T05:28:41;2.15;;;0.80;;
57191;SDS011;43052;52.588;13.396;2022-12-31T05:31:06;1.38;;;1.08;;
57191;SDS011;43052;52.588;13.396;2022-12-31T05:33:31;0.80;;;0.80;;
57191;SDS011;43052;52.588;13.396;2022-12-31T05:35:57;0.98;;;0.95;;
57191;SDS011;43052;52.588;13.396;2022-12-31T05:38:22;2.05;;;0.90;;
57191;SDS011;43052;52.588;13.396;2022-12-31T05:40:48;1.63;;;0.90;;
57191;SDS011;43052;52.588;13.396;2022-12-31T05:43:13;1.10;;;0.90;;
57191;SDS011;43052;52.588;13.396;2022-12-31T05:45:38;0.75;;;0.63;;
57191;SDS011;43052;52.588;13.396;2022-12-31T05:48:04;0.90;;;0.85;;
57191;SDS011;43052;52.588;13.396;2022-12-31T05:50:29;1.33;;;1.10;;
57191;SDS011;43052;52.588;13.396;2022-12-31T05:52:55;1.05;;;0.95;;
57191;SDS011;43052;52.588;13.396;2022-12-31T05:55:20;1.27;;;1.17;;
57191;SDS011;43052;52.588;13.396;2022-12-31T05:57:45;0.80;;;0.80;;
57191;SDS011;43052;52.588;13.396;2022-12-31T06:00:11;0.90;;;0.82;;
57191;SDS011;43052;52.588;13.396;2022-12-31T06:02:36;1.30;;;1.10;;
57191;SDS011;43052;52.588;13.396;2022-12-31T06:05:01;1.60;;;1.30;;
57191;SDS011;43052;52.588;13.396;2022-12-31T06:07:26;1.75;;;0.85;;
57191;SDS011;43052;52.588;13.396;2022-12-31T06:09:52;1.05;;;1.05;;
57191;SDS011;43052;52.588;13.396;2022-12-31T06:12:17;1.10;;;1.00;;
57191;SDS011;43052;52.588;13.396;2022-12-31T06:14:43;1.20;;;1.10;;
57191;SDS011;43052;52.588;13.396;2022-12-31T06:17:08;0.90;;;0.82;;
57191;SDS011;43052;52.588;13.396;2022-12-31T06:19:33;1.20;;;1.10;;
57191;SDS011;43052;52.588;13.396;2022-12-31T06:21:59;1.25;;;1.13;;
57191;SDS011;43052;52.588;13.396;2022-12-31T06:24:24;1.13;;;1.02;;
57191;SDS011;43052;52.588;13.396;2022-12-31T06:26:49;1.42;;;1.20;;
57191;SDS011;43052;52.588;13.396;2022-12-31T06:29:14;1.83;;;1.23;;
57191;SDS011;43052;52.588;13.396;2022-12-31T06:31:40;0.77;;;0.77;;
57191;SDS011;43052;52.588;13.396;2022-12-31T06:34:05;1.48;;;1.02;;
57191;SDS011;43052;52.588;13.396;2022-12-31T06:36:30;1.52;;;1.23;;
57191;SDS011;43052;52.588;13.396;2022-12-31T06:38:56;1.70;;;1.20;;
57191;SDS011;43052;52.588;13.396;2022-12-31T06:41:21;2.08;;;1.08;;
57191;SDS011;43052;52.588;13.396;2022-12-31T06:43:46;1.20;;;1.10;;
57191;SDS011;43052;52.588;13.396;2022-12-31T06:46:14;1.25;;;1.15;;
57191;SDS011;43052;52.588;13.396;2022-12-31T06:48:40;1.08;;;0.98;;
57191;SDS011;43052;52.588;13.396;2022-12-31T06:51:10;3.42;;;1.05;;
57191;SDS011;43052;52.588;13.396;2022-12-31T06:53:36;1.35;;;1.00;;
57191;SDS011;43052;52.588;13.396;2022-12-31T06:56:05;2.42;;;1.20;;
57191;SDS011;43052;52.588;13.396;2022-12-31T06:58:31;1.15;;;0.90;;
57191;SDS011;43052;52.588;13.396;2022-12-31T07:07:06;1.92;;;0.98;;
57191;SDS011;43052;52.588;13.396;2022-12-31T07:09:46;0.93;;;0.93;;
57191;SDS011;43052;52.588;13.396;2022-12-31T07:13:12;1.08;;;1.00;;
57191;SDS011;43052;52.588;13.396;2022-12-31T07:15:41;1.20;;;0.90;;
57191;SDS011;43052;52.588;13.396;2022-12-31T07:18:22;1.08;;;0.90;;
57191;SDS011;43052;52.588;13.396;2022-12-31T07:20:48;1.45;;;0.90;;
57191;SDS011;43052;52.588;13.396;2022-12-31T07:23:13;0.80;;;0.80;;
57191;SDS011;43052;52.588;13.396;2022-12-31T07:25:40;1.83;;;0.95;;
57191;SDS011;43052;52.588;13.396;2022-12-31T07:28:18;0.73;;;0.73;;
57191;SDS011;43052;52.588;13.396;2022-12-31T07:31:03;1.05;;;0.80;;
57191;SDS011;43052;52.588;13.396;2022-12-31T07:33:48;0.70;;;0.70;;
57191;SDS011;43052;52.588;13.396;2022-12-31T07:36:42;0.70;;;0.70;;
57191;SDS011;43052;52.588;13.396;2022-12-31T07:39:21;0.98;;;0.80;;
57191;SDS011;43052;52.588;13.396;2022-12-31T07:44:33;2.95;;;0.90;;
57191;SDS011;43052;52.588;13.396;2022-12-31T07:47:11;1.10;;;0.90;;
57191;SDS011;43052;52.588;13.396;2022-12-31T07:49:47;0.70;;;0.70;;
57191;SDS011;43052;52.588;13.396;2022-12-31T07:52:13;0.80;;;0.80;;
57191;SDS011;43052;52.588;13.396;2022-12-31T07:54:38;0.70;;;0.70;;
57191;SDS011;43052;52.588;13.396;2022-12-31T07:57:03;0.70;;;0.70;;
57191;SDS011;43052;52.588;13.396;2022-12-31T07:59:40;1.55;;;0.90;;
57191;SDS011;43052;52.588;13.396;2022-12-31T08:02:34;0.70;;;0.70;;
57191;SDS011;43052;52.588;13.396;2022-12-31T08:07:47;1.15;;;0.80;;
57191;SDS011;43052;52.588;13.396;2022-12-31T08:13:24;0.95;;;0.88;;
57191;SDS011;43052;52.588;13.396;2022-12-31T08:15:51;2.08;;;0.90;;
57191;SDS011;43052;52.588;13.396;2022-12-31T08:18:16;1.00;;;0.90;;
57191;SDS011;43052;52.588;13.396;2022-12-31T08:20:49;1.00;;;0.82;;
57191;SDS011;43052;52.588;13.396;2022-12-31T08:23:35;1.52;;;0.90;;
57191;SDS011;43052;52.588;13.396;2022-12-31T08:28:54;1.83;;;0.93;;
57191;SDS011;43052;52.588;13.396;2022-12-31T08:31:29;2.78;;;1.08;;
57191;SDS011;43052;52.588;13.396;2022-12-31T08:34:09;1.73;;;1.00;;
57191;SDS011;43052;52.588;13.396;2022-12-31T08:41:55;1.35;;;1.00;;
57191;SDS011;43052;52.588;13.396;2022-12-31T08:44:26;1.15;;;0.88;;
57191;SDS011;43052;52.588;13.396;2022-12-31T08:49:56;2.30;;;1.00;;
57191;SDS011;43052;52.588;13.396;2022-12-31T08:52:22;1.15;;;0.90;;
57191;SDS011;43052;52.588;13.396;2022-12-31T08:54:49;1.30;;;0.93;;
57191;SDS011;43052;52.588;13.396;2022-12-31T09:00:06;1.33;;;0.93;;
57191;SDS011;43052;52.588;13.396;2022-12-31T09:02:55;1.13;;;0.88;;
57191;SDS011;43052;52.588;13.396;2022-12-31T09:08:47;1.10;;;1.00;;
57191;SDS011;43052;52.588;13.396;2022-12-31T09:11:22;1.90;;;1.25;;
57191;SDS011;43052;52.588;13.396;2022-12-31T09:14:05;3.80;;;1.50;;
57191;SDS011;43052;52.588;13.396;2022-12-31T09:19:25;1.33;;;0.80;;
57191;SDS011;43052;52.588;13.396;2022-12-31T09:21:51;1.92;;;0.93;;
57191;SDS011;43052;52.588;13.396;2022-12-31T09:24:16;1.27;;;1.00;;
57191;SDS011;43052;52.588;13.396;2022-12-31T09:26:45;1.08;;;0.95;;
57191;SDS011;43052;52.588;13.396;2022-12-31T09:35:04;2.58;;;1.02;;
57191;SDS011;43052;52.588;13.396;2022-12-31T09:37:44;1.33;;;0.90;;
57191;SDS011;43052;52.588;13.396;2022-12-31T09:40:40;2.25;;;1.13;;
57191;SDS011;43052;52.588;13.396;2022-12-31T09:54:53;1.83;;;0.88;;
57191;SDS011;43052;52.588;13.396;2022-12-31T09:57:26;0.88;;;0.80;;
57191;SDS011;43052;52.588;13.396;2022-12-31T10:00:02;1.50;;;0.80;;
57191;SDS011;43052;52.588;13.396;2022-12-31T10:05:49;2.53;;;2.08;;
57191;SDS011;43052;52.588;13.396;2022-12-31T10:08:34;1.83;;;1.25;;
57191;SDS011;43052;52.588;13.396;2022-12-31T10:11:45;3.35;;;1.20;;
57191;SDS011;43052;52.588;13.396;2022-12-31T10:14:29;3.47;;;1.00;;
57191;SDS011;43052;52.588;13.396;2022-12-31T10:20:03;1.45;;;1.00;;
57191;SDS011;43052;52.588;13.396;2022-12-31T10:25:52;2.55;;;1.10;;
57191;SDS011;43052;52.588;13.396;2022-12-31T10:31:11;1.20;;;1.10;;
57191;SDS011;43052;52.588;13.396;2022-12-31T10:33:51;1.98;;;1.27;;
57191;SDS011;43052;52.588;13.396;2022-12-31T10:36:55;2.10;;;1.13;;
57191;SDS011;43052;52.588;13.396;2022-12-31T10:39:32;2.08;;;1.20;;
57191;SDS011;43052;52.588;13.396;2022-12-31T10:45:32;1.48;;;1.20;;
57191;SDS011;43052;52.588;13.396;2022-12-31T10:51:09;1.58;;;1.10;;
57191;SDS011;43052;52.588;13.396;2022-12-31T10:57:06;1.77;;;1.30;;
57191;SDS011;43052;52.588;13.396;2022-12-31T11:00:00;2.90;;;1.60;;
57191;SDS011;43052;52.588;13.396;2022-12-31T11:07:46;3.33;;;1.70;;
57191;SDS011;43052;52.588;13.396;2022-12-31T11:10:28;1.88;;;1.50;;
57191;SDS011;43052;52.588;13.396;2022-12-31T11:21:47;2.65;;;1.80;;
57191;SDS011;43052;52.588;13.396;2022-12-31T11:24:21;3.03;;;1.70;;
57191;SDS011;43052;52.588;13.396;2022-12-31T11:27:17;3.00;;;1.60;;
57191;SDS011;43052;52.588;13.396;2022-12-31T11:32:53;2.55;;;1.65;;
57191;SDS011;43052;52.588;13.396;2022-12-31T11:38:23;2.95;;;1.95;;
57191;SDS011;43052;52.588;13.396;2022-12-31T11:41:04;4.68;;;2.08;;
57191;SDS011;43052;52.588;13.396;2022-12-31T11:46:20;4.00;;;2.63;;
57191;SDS011;43052;52.588;13.396;2022-12-31T11:49:00;2.88;;;2.05;;
57191;SDS011;43052;52.588;13.396;2022-12-31T11:51:46;3.67;;;2.30;;
57191;SDS011;43052;52.588;13.396;2022-12-31T11:59:45;3.63;;;2.13;;
57191;SDS011;43052;52.588;13.396;2022-12-31T12:02:19;4.13;;;2.40;;
57191;SDS011;43052;52.588;13.396;2022-12-31T12:04:49;4.10;;;2.20;;
57191;SDS011;43052;52.588;13.396;2022-12-31T12:07:15;4.15;;;2.53;;
57191;SDS011;43052;52.588;13.396;2022-12-31T12:09:43;3.28;;;2.30;;
57191;SDS011;43052;52.588;13.396;2022-12-31T12:12:09;3.28;;;2.13;;
57191;SDS011;43052;52.588;13.396;2022-12-31T12:14:36;2.72;;;1.90;;
57191;SDS011;43052;52.588;13.396;2022-12-31T12:17:06;2.00;;;1.50;;
57191;SDS011;43052;52.588;13.396;2022-12-31T12:19:34;2.42;;;1.30;;
57191;SDS011;43052;52.588;13.396;2022-12-31T12:22:09;3.88;;;1.60;;
57191;SDS011;43052;52.588;13.396;2022-12-31T12:24:36;2.85;;;1.60;;
57191;SDS011;43052;52.588;13.396;2022-12-31T12:27:02;1.77;;;1.25;;
57191;SDS011;43052;52.588;13.396;2022-12-31T12:29:28;1.77;;;1.27;;
57191;SDS011;43052;52.588;13.396;2022-12-31T12:31:59;1.70;;;1.27;;
57191;SDS011;43052;52.588;13.396;2022-12-31T12:36:57;1.75;;;1.30;;
57191;SDS011;43052;52.588;13.396;2022-12-31T12:39:25;1.58;;;1.10;;
57191;SDS011;43052;52.588;13.396;2022-12-31T12:44:37;3.35;;;1.25;;
57191;SDS011;43052;52.588;13.396;2022-12-31T12:47:04;3.22;;;1.45;;
57191;SDS011;43052;52.588;13.396;2022-12-31T12:49:39;1.95;;;1.23;;
57191;SDS011;43052;52.588;13.396;2022-12-31T12:55:33;2.92;;;1.20;;
57191;SDS011;43052;52.588;13.396;2022-12-31T12:58:09;2.50;;;1.40;;
57191;SDS011;43052;52.588;13.396;2022-12-31T13:01:01;3.25;;;1.42;;
57191;SDS011;43052;52.588;13.396;2022-12-31T13:03:58;2.97;;;1.42;;
57191;SDS011;43052;52.588;13.396;2022-12-31T13:06:34;2.90;;;1.45;;
57191;SDS011;43052;52.588;13.396;2022-12-31T13:09:17;3.10;;;1.40;;
57191;SDS011;43052;52.588;13.396;2022-12-31T13:17:31;2.95;;;1.30;;
57191;SDS011;43052;52.588;13.396;2022-12-31T13:20:22;2.35;;;1.30;;
57191;SDS011;43052;52.588;13.396;2022-12-31T13:22:55;3.03;;;1.50;;
57191;SDS011;43052;52.588;13.396;2022-12-31T13:28:30;2.72;;;1.33;;
57191;SDS011;43052;52.588;13.396;2022-12-31T13:30:59;3.05;;;1.60;;
57191;SDS011;43052;52.588;13.396;2022-12-31T13:33:31;2.20;;;1.25;;
57191;SDS011;43052;52.588;13.396;2022-12-31T13:36:04;2.70;;;1.50;;
57191;SDS011;43052;52.588;13.396;2022-12-31T13:38:41;3.55;;;1.70;;
57191;SDS011;43052;52.588;13.396;2022-12-31T13:41:15;2.85;;;1.17;;
57191;SDS011;43052;52.588;13.396;2022-12-31T13:49:40;2.30;;;1.20;;
57191;SDS011;43052;52.588;13.396;2022-12-31T13:54:49;0.90;;;0.90;;
57191;SDS011;43052;52.588;13.396;2022-12-31T14:00:14;1.42;;;1.13;;
57191;SDS011;43052;52.588;13.396;2022-12-31T14:02:44;0.98;;;0.98;;
57191;SDS011;43052;52.588;13.396;2022-12-31T14:05:24;1.58;;;1.20;;
57191;SDS011;43052;52.588;13.396;2022-12-31T14:07:59;1.33;;;1.10;;
57191;SDS011;43052;52.588;13.396;2022-12-31T14:16:18;1.55;;;1.20;;
57191;SDS011;43052;52.588;13.396;2022-12-31T14:18:58;1.70;;;1.13;;
57191;SDS011;43052;52.588;13.396;2022-12-31T14:21:40;2.25;;;1.13;;
57191;SDS011;43052;52.588;13.396;2022-12-31T14:24:56;2.75;;;1.45;;
57191;SDS011;43052;52.588;13.396;2022-12-31T14:26:57;2.92;;;1.40;;
57191;SDS011;43052;52.588;13.396;2022-12-31T14:29:40;2.72;;;1.67;;
57191;SDS011;43052;52.588;13.396;2022-12-31T14:35:23;2.95;;;1.17;;
57191;SDS011;43052;52.588;13.396;2022-12-31T14:40:46;1.35;;;1.25;;
57191;SDS011;43052;52.588;13.396;2022-12-31T14:46:23;4.38;;;1.30;;
57191;SDS011;43052;52.588;13.396;2022-12-31T14:48:59;2.60;;;1.50;;
57191;SDS011;43052;52.588;13.396;2022-12-31T14:51:43;2.38;;;1.50;;
57191;SDS011;43052;52.588;13.396;2022-12-31T14:54:24;1.98;;;1.50;;
57191;SDS011;43052;52.588;13.396;2022-12-31T14:56:52;1.75;;;1.20;;
57191;SDS011;43052;52.588;13.396;2022-12-31T14:59:25;2.72;;;1.75;;
57191;SDS011;43052;52.588;13.396;2022-12-31T15:01:53;3.22;;;1.67;;
57191;SDS011;43052;52.588;13.396;2022-12-31T15:09:56;3.25;;;2.15;;
57191;SDS011;43052;52.588;13.396;2022-12-31T15:15:38;3.95;;;2.00;;
57191;SDS011;43052;52.588;13.396;2022-12-31T15:20:58;3.50;;;2.20;;
57191;SDS011;43052;52.588;13.396;2022-12-31T15:23:37;3.30;;;2.05;;
57191;SDS011;43052;52.588;13.396;2022-12-31T15:26:06;5.00;;;1.90;;
57191;SDS011;43052;52.588;13.396;2022-12-31T15:28:45;4.65;;;2.03;;
57191;SDS011;43052;52.588;13.396;2022-12-31T15:31:21;3.97;;;2.05;;
57191;SDS011;43052;52.588;13.396;2022-12-31T15:33:54;3.92;;;2.15;;
57191;SDS011;43052;52.588;13.396;2022-12-31T15:36:21;4.10;;;2.10;;
57191;SDS011;43052;52.588;13.396;2022-12-31T15:38:48;5.57;;;2.60;;
57191;SDS011;43052;52.588;13.396;2022-12-31T15:41:25;7.07;;;4.75;;
57191;SDS011;43052;52.588;13.396;2022-12-31T15:43:57;6.05;;;4.10;;
57191;SDS011;43052;52.588;13.396;2022-12-31T15:46:54;5.88;;;3.30;;
57191;SDS011;43052;52.588;13.396;2022-12-31T15:49:24;6.03;;;2.70;;
57191;SDS011;43052;52.588;13.396;2022-12-31T15:51:58;4.80;;;2.88;;
57191;SDS011;43052;52.588;13.396;2022-12-31T15:54:35;5.70;;;3.53;;
57191;SDS011;43052;52.588;13.396;2022-12-31T15:57:04;6.95;;;3.88;;
57191;SDS011;43052;52.588;13.396;2022-12-31T15:59:30;5.60;;;3.80;;
57191;SDS011;43052;52.588;13.396;2022-12-31T16:01:56;9.35;;;4.55;;
57191;SDS011;43052;52.588;13.396;2022-12-31T16:04:22;9.38;;;5.60;;
57191;SDS011;43052;52.588;13.396;2022-12-31T16:06:50;8.25;;;4.43;;
57191;SDS011;43052;52.588;13.396;2022-12-31T16:09:20;11.50;;;7.00;;
57191;SDS011;43052;52.588;13.396;2022-12-31T16:11:48;9.10;;;4.10;;
57191;SDS011;43052;52.588;13.396;2022-12-31T16:14:16;7.43;;;3.97;;
57191;SDS011;43052;52.588;13.396;2022-12-31T16:16:50;7.75;;;3.85;;
57191;SDS011;43052;52.588;13.396;2022-12-31T16:19:22;7.75;;;3.75;;
57191;SDS011;43052;52.588;13.396;2022-12-31T16:24:31;5.90;;;3.58;;
57191;SDS011;43052;52.588;13.396;2022-12-31T16:27:02;5.85;;;3.08;;
57191;SDS011;43052;52.588;13.396;2022-12-31T16:29:30;4.72;;;3.35;;
57191;SDS011;43052;52.588;13.396;2022-12-31T16:31:59;7.10;;;4.22;;
57191;SDS011;43052;52.588;13.396;2022-12-31T16:34:26;4.63;;;3.55;;
57191;SDS011;43052;52.588;13.396;2022-12-31T16:39:27;5.65;;;3.67;;
57191;SDS011;43052;52.588;13.396;2022-12-31T16:42:07;5.40;;;3.50;;
57191;SDS011;43052;52.588;13.396;2022-12-31T16:44:39;7.78;;;4.40;;
57191;SDS011;43052;52.588;13.396;2022-12-31T16:47:06;7.10;;;4.13;;
57191;SDS011;43052;52.588;13.396;2022-12-31T16:49:37;8.00;;;4.57;;
57191;SDS011;43052;52.588;13.396;2022-12-31T16:52:04;6.25;;;3.85;;
57191;SDS011;43052;52.588;13.396;2022-12-31T16:54:42;7.78;;;4.97;;
57191;SDS011;43052;52.588;13.396;2022-12-31T16:57:14;8.70;;;4.68;;
57191;SDS011;43052;52.588;13.396;2022-12-31T16:59:44;7.78;;;4.47;;
57191;SDS011;43052;52.588;13.396;2022-12-31T17:02:20;7.85;;;4.70;;
57191;SDS011;43052;52.588;13.396;2022-12-31T17:04:50;7.38;;;4.72;;
57191;SDS011;43052;52.588;13.396;2022-12-31T17:07:36;7.75;;;4.80;;
57191;SDS011;43052;52.588;13.396;2022-12-31T17:12:32;8.23;;;6.60;;
57191;SDS011;43052;52.588;13.396;2022-12-31T17:15:01;7.63;;;5.03;;
57191;SDS011;43052;52.588;13.396;2022-12-31T17:17:30;8.32;;;4.60;;
57191;SDS011;43052;52.588;13.396;2022-12-31T17:19:59;8.18;;;5.88;;
57191;SDS011;43052;52.588;13.396;2022-12-31T17:22:34;8.07;;;6.47;;
57191;SDS011;43052;52.588;13.396;2022-12-31T17:25:26;6.70;;;4.82;;
57191;SDS011;43052;52.588;13.396;2022-12-31T17:27:53;7.18;;;4.70;;
57191;SDS011;43052;52.588;13.396;2022-12-31T17:30:42;9.82;;;7.55;;
57191;SDS011;43052;52.588;13.396;2022-12-31T17:35:33;6.87;;;4.67;;
57191;SDS011;43052;52.588;13.396;2022-12-31T17:40:44;9.70;;;6.50;;
57191;SDS011;43052;52.588;13.396;2022-12-31T17:43:12;10.18;;;7.57;;
57191;SDS011;43052;52.588;13.396;2022-12-31T17:45:38;8.75;;;6.38;;
57191;SDS011;43052;52.588;13.396;2022-12-31T17:48:08;9.00;;;5.57;;
57191;SDS011;43052;52.588;13.396;2022-12-31T17:50:36;7.45;;;5.18;;
57191;SDS011;43052;52.588;13.396;2022-12-31T17:53:13;8.65;;;5.22;;
57191;SDS011;43052;52.588;13.396;2022-12-31T17:55:38;7.78;;;5.15;;
57191;SDS011;43052;52.588;13.396;2022-12-31T17:58:06;7.20;;;4.30;;
57191;SDS011;43052;52.588;13.396;2022-12-31T18:00:39;8.32;;;5.10;;
57191;SDS011;43052;52.588;13.396;2022-12-31T18:03:04;6.68;;;4.28;;
57191;SDS011;43052;52.588;13.396;2022-12-31T18:05:29;6.93;;;4.15;;